createdAt,value
2023-05-05T00:02:07.762Z,100590.97
2023-05-05T00:07:06.656Z,100600.69
2023-05-05T00:12:05.857Z,100593.00
2023-05-05T00:17:05.297Z,100583.50
2023-05-05T00:22:04.183Z,100584.84
2023-05-05T00:27:03.476Z,100567.44
2023-05-05T00:32:02.340Z,100573.66
2023-05-05T00:37:01.657Z,100574.31
2023-05-05T00:42:00.634Z,100563.25
2023-05-05T00:46:59.394Z,100557.72
2023-05-05T00:51:58.994Z,100558.88
2023-05-05T00:56:57.851Z,100548.41
2023-05-05T01:01:57.075Z,100544.63
2023-05-05T01:07:14.801Z,100541.34
2023-05-05T01:12:33.822Z,100552.03
2023-05-05T01:17:42.657Z,100553.75
2023-05-05T01:22:53.223Z,100547.91
2023-05-05T01:28:18.361Z,100543.72
2023-05-05T01:33:24.780Z,100548.06
2023-05-05T01:38:32.410Z,100552.38
2023-05-05T01:43:35.754Z,100550.97
2023-05-05T01:48:35.063Z,100551.38
2023-05-05T01:53:35.347Z,100546.97
2023-05-05T01:58:35.615Z,100552.16
2023-05-05T02:03:37.767Z,100551.78
2023-05-05T02:08:38.179Z,100541.19
2023-05-05T02:13:39.484Z,100533.75
2023-05-05T02:18:38.921Z,100526.94
2023-05-05T02:23:38.623Z,100521.88
2023-05-05T02:28:48.834Z,100509.91
2023-05-05T02:33:49.585Z,100508.09
2023-05-05T02:38:53.466Z,100510.53
2023-05-05T02:43:55.252Z,100508.22
2023-05-05T02:48:54.844Z,100501.69
2023-05-05T02:53:53.745Z,100504.91
2023-05-05T02:58:57.072Z,100514.50
2023-05-05T03:04:11.600Z,100516.72
2023-05-05T03:09:25.793Z,100515.50
2023-05-05T03:14:33.255Z,100520.97
2023-05-05T03:19:34.592Z,100519.84
2023-05-05T03:24:33.556Z,100515.06
2023-05-05T03:29:37.253Z,100513.63
2023-05-05T03:34:40.018Z,100519.97
2023-05-05T03:39:38.797Z,100513.84
2023-05-05T03:44:39.092Z,100521.44
2023-05-05T03:49:38.424Z,100515.13
2023-05-05T03:54:37.651Z,100508.28
2023-05-05T03:59:36.497Z,100525.72
2023-05-05T04:04:35.786Z,100526.19
2023-05-05T04:09:35.108Z,100523.47
2023-05-05T04:14:34.125Z,100529.22
2023-05-05T04:19:33.840Z,100525.84
2023-05-05T04:24:34.690Z,100525.31
2023-05-05T04:29:33.922Z,100519.31
2023-05-05T04:34:33.297Z,100524.69
2023-05-05T04:39:32.768Z,100522.97
2023-05-05T04:44:32.213Z,100535.72
2023-05-05T04:49:31.634Z,100546.63
2023-05-05T04:54:30.704Z,100539.50
2023-05-05T04:59:30.064Z,100538.97
2023-05-05T05:04:29.267Z,100541.06
2023-05-05T05:09:28.252Z,100530.59
2023-05-05T05:14:28.216Z,100542.00
2023-05-05T05:19:27.255Z,100539.53
2023-05-05T05:24:26.320Z,100545.31
2023-05-05T05:29:27.147Z,100541.94
2023-05-05T05:34:26.917Z,100533.38
2023-05-05T05:39:26.695Z,100539.47
2023-05-05T05:44:25.938Z,100546.84
2023-05-05T05:49:24.698Z,100546.56
2023-05-05T05:54:24.026Z,100536.56
2023-05-05T05:59:23.079Z,100537.56
2023-05-05T06:04:22.105Z,100544.63
2023-05-05T06:09:21.023Z,100546.00
2023-05-05T06:14:20.235Z,100545.19
2023-05-05T06:19:20.110Z,100547.47
2023-05-05T06:24:19.009Z,100548.16
2023-05-05T06:29:18.421Z,100545.06
2023-05-05T06:34:18.354Z,100542.38
2023-05-05T06:39:17.107Z,100537.25
2023-05-05T06:44:16.134Z,100537.31
2023-05-05T06:49:14.995Z,100518.44
2023-05-05T06:54:13.925Z,100525.16
2023-05-05T06:59:12.653Z,100517.06
2023-05-05T07:04:11.822Z,100522.03
2023-05-05T07:09:10.806Z,100515.22
2023-05-05T07:14:09.555Z,100512.22
2023-05-05T07:19:08.586Z,100521.44
2023-05-05T07:24:07.486Z,100523.06
2023-05-05T07:29:07.186Z,100521.66
2023-05-05T07:34:06.277Z,100514.69
2023-05-05T07:39:07.598Z,100513.56
2023-05-05T07:44:06.441Z,100517.34
2023-05-05T07:49:05.220Z,100517.53
2023-05-05T07:54:04.466Z,100514.69
2023-05-05T07:59:03.661Z,100520.56
2023-05-05T08:04:02.409Z,100512.94
2023-05-05T08:09:01.918Z,100514.41
2023-05-05T08:14:00.979Z,100504.41
2023-05-05T08:18:59.848Z,100512.81
2023-05-05T08:23:58.712Z,100510.06
2023-05-05T08:29:00.799Z,100504.00
2023-05-05T08:33:59.624Z,100509.38
2023-05-05T08:38:58.653Z,100499.88
2023-05-05T08:43:57.478Z,100494.75
2023-05-05T08:48:57.746Z,100489.28
2023-05-05T08:54:06.572Z,100481.53
2023-05-05T08:59:05.573Z,100480.56
2023-05-05T09:04:05.157Z,100484.81
2023-05-05T09:09:04.162Z,100462.34
2023-05-05T09:14:03.030Z,100473.84
2023-05-05T09:19:03.515Z,100471.56
2023-05-05T09:24:11.204Z,100468.00
2023-05-05T09:29:10.193Z,100455.91
2023-05-05T09:34:16.606Z,100463.41
2023-05-05T09:39:20.212Z,100463.78
2023-05-05T09:44:34.681Z,100471.31
2023-05-05T09:49:33.760Z,100478.63
2023-05-05T09:54:34.744Z,100466.34
2023-05-05T09:59:33.676Z,100465.97
2023-05-05T10:04:32.594Z,100460.53
2023-05-05T10:09:32.879Z,100461.13
2023-05-05T10:14:34.112Z,100463.53
2023-05-05T10:19:35.898Z,100458.09
2023-05-05T10:24:40.078Z,100448.47
2023-05-05T10:29:40.659Z,100440.88
2023-05-05T10:34:53.447Z,100440.28
2023-05-05T10:39:53.392Z,100437.34
2023-05-05T10:44:52.327Z,100429.50
2023-05-05T10:50:04.210Z,100425.28
2023-05-05T10:55:13.163Z,100423.84
2023-05-05T11:00:41.288Z,100420.84
2023-05-05T11:06:06.225Z,100414.72
2023-05-05T11:11:06.100Z,100406.00
2023-05-05T11:16:05.671Z,100403.97
2023-05-05T11:21:15.488Z,100406.00
2023-05-05T11:26:15.643Z,100397.72
2023-05-05T11:31:18.916Z,100391.06
2023-05-05T11:36:19.981Z,100384.41
2023-05-05T11:41:40.612Z,100382.09
2023-05-05T11:46:41.071Z,100377.88
2023-05-05T11:51:40.130Z,100375.13
2023-05-05T11:56:50.568Z,100380.94
2023-05-05T12:01:49.284Z,100367.44
2023-05-05T12:06:49.246Z,100366.78
2023-05-05T12:12:00.927Z,100371.34
2023-05-05T12:17:09.720Z,100361.06
2023-05-05T12:22:08.577Z,100363.22
2023-05-05T12:27:11.794Z,100353.53
2023-05-05T12:32:23.588Z,100362.63
2023-05-05T12:37:26.345Z,100358.72
2023-05-05T12:42:25.380Z,100357.53
2023-05-05T12:47:32.533Z,100358.88
2023-05-05T12:52:44.939Z,100353.13
2023-05-05T12:58:04.690Z,100341.28
2023-05-05T13:03:04.940Z,100335.91
2023-05-05T13:08:04.264Z,100341.59
2023-05-05T13:13:04.932Z,100343.03
2023-05-05T13:18:03.947Z,100328.94
2023-05-05T13:23:02.681Z,100324.00
2023-05-05T13:28:01.461Z,100320.75
2023-05-05T13:33:00.283Z,100310.47
2023-05-05T13:37:59.141Z,100295.16
2023-05-05T13:42:58.270Z,100294.78
2023-05-05T13:47:57.295Z,100283.84
2023-05-05T13:52:56.410Z,100278.50
2023-05-05T13:57:55.287Z,100273.28
2023-05-05T14:02:54.308Z,100275.59
2023-05-05T14:07:54.427Z,100277.50
2023-05-05T14:12:56.646Z,100269.22
2023-05-05T14:17:56.177Z,100261.06
2023-05-05T14:22:55.273Z,100255.00
2023-05-05T14:27:55.792Z,100259.09
2023-05-05T14:32:54.598Z,100253.31
2023-05-05T14:37:53.415Z,100250.81
2023-05-05T14:42:52.283Z,100249.25
2023-05-05T14:47:51.169Z,100246.19
2023-05-05T14:52:49.978Z,100241.94
2023-05-05T14:57:48.917Z,100243.88
2023-05-05T15:02:48.420Z,100241.06
2023-05-05T15:07:47.787Z,100231.72
2023-05-05T15:12:46.773Z,100231.22
2023-05-05T15:17:45.847Z,100215.63
2023-05-05T15:22:44.760Z,100217.38
2023-05-05T15:27:43.621Z,100216.75
2023-05-05T15:32:42.596Z,100216.28
2023-05-05T15:37:42.605Z,100215.81
2023-05-05T15:42:41.582Z,100204.25
2023-05-05T15:47:40.842Z,100205.91
2023-05-05T15:52:39.931Z,100207.53
2023-05-05T15:57:41.721Z,100206.13
2023-05-05T16:02:40.710Z,100198.47
2023-05-05T16:07:39.736Z,100196.22
2023-05-05T16:12:38.598Z,100196.41
2023-05-05T16:17:37.813Z,100186.97
2023-05-05T16:22:37.055Z,100191.66
2023-05-05T16:27:36.003Z,100186.34
2023-05-05T16:32:34.956Z,100182.25
2023-05-05T16:37:33.811Z,100185.31
2023-05-05T16:42:32.513Z,100179.47
2023-05-05T16:47:31.366Z,100172.13
2023-05-05T16:52:30.341Z,100174.56
2023-05-05T16:57:29.491Z,100184.56
2023-05-05T17:02:28.590Z,100177.84
2023-05-05T17:07:27.796Z,100171.34
2023-05-05T17:12:26.588Z,100180.84
2023-05-05T17:17:25.464Z,100173.25
2023-05-05T17:22:24.382Z,100176.44
2023-05-05T17:27:23.205Z,100177.19
2023-05-05T17:32:22.340Z,100173.84
2023-05-05T17:37:21.236Z,100173.34
2023-05-05T17:42:22.996Z,100171.03
2023-05-05T17:47:22.572Z,100164.50
2023-05-05T17:52:22.688Z,100166.22
2023-05-05T17:57:21.514Z,100162.91
2023-05-05T18:02:20.500Z,100155.78
2023-05-05T18:07:19.654Z,100170.81
2023-05-05T18:12:18.434Z,100166.94
2023-05-05T18:17:17.162Z,100178.66
2023-05-05T18:22:16.039Z,100174.47
2023-05-05T18:27:14.935Z,100171.16
2023-05-05T18:32:13.771Z,100182.34
2023-05-05T18:37:12.683Z,100189.44
2023-05-05T18:42:13.004Z,100188.84
2023-05-05T18:47:12.034Z,100198.09
2023-05-05T18:52:10.888Z,100195.22
2023-05-05T18:57:09.979Z,100197.94
2023-05-05T19:02:09.073Z,100185.47
2023-05-05T19:07:07.886Z,100190.97
2023-05-05T19:12:06.865Z,100192.97
2023-05-05T19:17:05.938Z,100201.91
2023-05-05T19:22:04.852Z,100186.53
2023-05-05T19:27:04.098Z,100193.72
2023-05-05T19:32:02.921Z,100199.81
2023-05-05T19:37:01.878Z,100202.41
2023-05-05T19:42:01.133Z,100203.91
2023-05-05T19:47:00.126Z,100202.81
2023-05-05T19:51:59.100Z,100210.34
2023-05-05T19:56:57.904Z,100202.41
2023-05-05T20:01:56.940Z,100200.81
2023-05-05T20:06:55.721Z,100199.00
2023-05-05T20:11:55.520Z,100194.00
2023-05-05T20:16:54.560Z,100184.16
2023-05-05T20:21:53.402Z,100184.66
2023-05-05T20:26:52.191Z,100177.41
2023-05-05T20:31:50.952Z,100166.38
2023-05-05T20:36:49.788Z,100171.25
2023-05-05T20:41:49.045Z,100174.59
2023-05-05T20:46:47.837Z,100174.69
2023-05-05T20:51:46.759Z,100170.22
2023-05-05T20:56:45.592Z,100173.94
2023-05-05T21:01:44.418Z,100175.28
2023-05-05T21:06:43.195Z,100175.88
2023-05-05T21:11:43.628Z,100169.66
2023-05-05T21:16:42.879Z,100171.59
2023-05-05T21:21:41.771Z,100166.13
2023-05-05T21:26:44.344Z,100166.91
2023-05-05T21:31:43.070Z,100156.09
2023-05-05T21:36:41.803Z,100150.22
2023-05-05T21:41:40.657Z,100143.50
2023-05-05T21:46:39.640Z,100141.03
2023-05-05T21:51:38.464Z,100143.69
2023-05-05T21:56:37.526Z,100130.50
2023-05-05T22:01:36.963Z,100135.28
2023-05-05T22:06:35.765Z,100136.63
2023-05-05T22:11:34.596Z,100140.22
2023-05-05T22:16:33.416Z,100136.31
2023-05-05T22:21:32.398Z,100149.44
2023-05-05T22:26:31.178Z,100148.00
2023-05-05T22:31:30.829Z,100144.91
2023-05-05T22:36:29.738Z,100139.16
2023-05-05T22:41:28.475Z,100149.34
2023-05-05T22:46:27.306Z,100153.56
2023-05-05T22:51:26.141Z,100169.47
2023-05-05T22:56:24.993Z,100190.72
2023-05-05T23:01:24.054Z,100214.38
2023-05-05T23:06:22.856Z,100220.56
2023-05-05T23:11:21.722Z,100212.88
2023-05-05T23:16:20.711Z,100228.06
2023-05-05T23:21:19.682Z,100237.34
2023-05-05T23:26:18.422Z,100225.63
2023-05-05T23:31:17.388Z,100225.25
2023-05-05T23:36:16.281Z,100225.22
2023-05-05T23:41:15.060Z,100224.41
2023-05-05T23:46:13.991Z,100212.66
2023-05-05T23:51:12.834Z,100213.00
2023-05-05T23:56:11.998Z,100209.72
